SCEL/SCL METAR and TAF weather

Enter ICAO airport designator
Station Type Date Time Source
SCEL METAR 2020/01/26 01:00 UTC NOAA

SCEL 260100Z 15007KT CAVOK 27/05 Q1015 NOSIG


Station Type Date Time Source
SCEL Decoded METAR 2020/01/26 01:00 UTC NOAA

Pudahuel, Chile (SCEL) 33-23S 070-47W 476M
Jan 25, 2020 - 08:00 PM EST / 2020.01.26 0100 UTC
Wind: from the SSE (150 degrees) at 8 MPH (7 KT):0
Visibility: greater than 7 mile(s):0
Temperature: 80 F (27 C)
Dew Point: 41 F (5 C)
Relative Humidity: 24%
Pressure (altimeter): 29.97 in. Hg (1015 hPa)
ob: SCEL 260100Z 15007KT CAVOK 27/05 Q1015 NOSIG
cycle: 1

Station Type Date Time Source
SCEL TAF 2020/01/26 00:00 UTC NOAA

TAF SCEL 252220Z 2600/2624 21015KT CAVOK TX32/2619Z TN16/2611Z
BECMG 2601/2603 16006KT
TEMPO 2608/2612 VRB02KT 8000 NSC
BECMG 2614/2616 19010KT
BECMG 2618/2620 22015KT

Example: see airport list